createdAt,value
2023-05-07T00:02:17.208Z,87.20
2023-05-07T00:04:45.390Z,87.20
2023-05-07T00:07:12.931Z,87.20
2023-05-07T00:09:41.117Z,87.20
2023-05-07T00:12:09.139Z,87.30
2023-05-07T00:14:37.100Z,87.20
2023-05-07T00:17:04.636Z,87.20
2023-05-07T00:19:33.056Z,87.30
2023-05-07T00:22:00.702Z,87.40
2023-05-07T00:24:28.260Z,87.30
2023-05-07T00:26:56.014Z,87.30
2023-05-07T00:29:23.494Z,87.50
2023-05-07T00:31:52.109Z,87.50
2023-05-07T00:34:20.222Z,87.50
2023-05-07T00:36:47.788Z,87.40
2023-05-07T00:39:15.625Z,87.50
2023-05-07T00:41:43.221Z,87.60
2023-05-07T00:44:10.772Z,87.50
2023-05-07T00:46:38.968Z,87.50
2023-05-07T00:49:07.248Z,87.80
2023-05-07T00:51:35.246Z,87.60
2023-05-07T00:54:04.394Z,87.80
2023-05-07T00:56:33.043Z,87.70
2023-05-07T00:59:01.916Z,87.80
2023-05-07T01:01:30.127Z,87.90
2023-05-07T01:04:00.877Z,87.90
2023-05-07T01:06:30.841Z,88.00
2023-05-07T01:08:59.338Z,88.00
2023-05-07T01:11:27.337Z,88.10
2023-05-07T01:13:55.130Z,88.10
2023-05-07T01:16:23.183Z,88.10
2023-05-07T01:18:51.406Z,88.10
2023-05-07T01:21:19.390Z,88.10
2023-05-07T01:23:48.477Z,88.10
2023-05-07T01:26:16.360Z,88.10
2023-05-07T01:28:43.982Z,87.80
2023-05-07T01:31:13.485Z,88.10
2023-05-07T01:33:43.892Z,88.20
2023-05-07T01:36:12.980Z,88.00
2023-05-07T01:38:42.498Z,88.30
2023-05-07T01:41:10.197Z,88.30
2023-05-07T01:43:38.241Z,88.10
2023-05-07T01:46:06.584Z,88.40
2023-05-07T01:48:34.949Z,88.20
2023-05-07T01:51:03.561Z,88.30
2023-05-07T01:53:37.868Z,88.20
2023-05-07T01:56:06.260Z,88.10
2023-05-07T01:58:33.821Z,88.20
2023-05-07T02:01:01.733Z,88.30
2023-05-07T02:03:29.322Z,88.50
2023-05-07T02:05:57.375Z,88.30
2023-05-07T02:08:24.957Z,88.70
2023-05-07T02:10:52.789Z,88.50
2023-05-07T02:13:21.196Z,88.60
2023-05-07T02:15:51.684Z,88.50
2023-05-07T02:18:19.232Z,88.40
2023-05-07T02:20:46.761Z,88.50
2023-05-07T02:23:14.227Z,88.40
2023-05-07T02:25:41.715Z,88.40
2023-05-07T02:28:09.266Z,88.60
2023-05-07T02:30:38.185Z,88.50
2023-05-07T02:33:05.958Z,88.50
2023-05-07T02:35:33.557Z,88.30
2023-05-07T02:38:01.141Z,88.50
2023-05-07T02:40:28.644Z,88.50
2023-05-07T02:42:56.425Z,88.40
2023-05-07T02:45:23.976Z,88.60
2023-05-07T02:47:51.487Z,88.50
2023-05-07T02:50:19.272Z,88.50
2023-05-07T02:52:46.879Z,88.60
2023-05-07T02:55:14.575Z,88.60
2023-05-07T02:57:42.288Z,88.60
2023-05-07T03:00:17.560Z,88.50
2023-05-07T03:02:46.154Z,88.60
2023-05-07T03:05:14.619Z,88.50
2023-05-07T03:07:45.457Z,88.70
2023-05-07T03:10:13.269Z,89.00
2023-05-07T03:12:41.061Z,88.70
2023-05-07T03:15:09.374Z,88.60
2023-05-07T03:17:37.204Z,88.70
2023-05-07T03:20:05.173Z,88.60
2023-05-07T03:22:32.905Z,88.80
2023-05-07T03:25:00.975Z,88.60
2023-05-07T03:27:28.456Z,88.60
2023-05-07T03:29:56.146Z,88.50
2023-05-07T03:32:23.762Z,88.80
2023-05-07T03:34:51.287Z,88.70
2023-05-07T03:37:19.040Z,88.60
2023-05-07T03:39:46.491Z,88.60
2023-05-07T03:42:14.022Z,88.60
2023-05-07T03:44:41.598Z,88.60
2023-05-07T03:47:09.196Z,88.70
2023-05-07T03:49:36.782Z,88.60
2023-05-07T03:52:04.548Z,88.60
2023-05-07T03:54:32.404Z,88.60
2023-05-07T03:57:00.009Z,88.70
2023-05-07T03:59:27.577Z,88.60
2023-05-07T04:01:55.105Z,88.70
2023-05-07T04:04:22.626Z,88.60
2023-05-07T04:06:50.187Z,88.90
2023-05-07T04:09:17.702Z,89.00
2023-05-07T04:11:45.209Z,88.80
2023-05-07T04:14:12.775Z,88.80
2023-05-07T04:16:40.373Z,88.70
2023-05-07T04:19:08.108Z,88.90
2023-05-07T04:21:35.711Z,88.70
2023-05-07T04:24:05.117Z,88.70
2023-05-07T04:26:32.898Z,88.60
2023-05-07T04:29:00.991Z,88.70
2023-05-07T04:31:28.681Z,88.80
2023-05-07T04:33:56.514Z,88.60
2023-05-07T04:36:24.150Z,88.60
2023-05-07T04:38:51.661Z,88.80
2023-05-07T04:41:19.185Z,88.50
2023-05-07T04:43:46.939Z,88.70
2023-05-07T04:46:14.732Z,88.60
2023-05-07T04:48:42.223Z,88.70
2023-05-07T04:51:09.968Z,88.60
2023-05-07T04:53:37.547Z,88.70
2023-05-07T04:56:05.353Z,88.70
2023-05-07T04:58:33.146Z,88.80
2023-05-07T05:01:01.790Z,88.70
2023-05-07T05:03:29.684Z,88.60
2023-05-07T05:06:00.565Z,88.80
2023-05-07T05:08:28.057Z,88.80
2023-05-07T05:10:55.798Z,88.70
2023-05-07T05:13:23.436Z,88.80
2023-05-07T05:15:51.695Z,88.60
2023-05-07T05:18:19.187Z,88.80
2023-05-07T05:20:46.729Z,88.90
2023-05-07T05:23:14.372Z,88.80
2023-05-07T05:25:41.942Z,88.70
2023-05-07T05:28:09.476Z,88.70
2023-05-07T05:30:37.045Z,88.70
2023-05-07T05:33:04.753Z,88.70
2023-05-07T05:35:32.994Z,88.80
2023-05-07T05:38:00.919Z,88.70
2023-05-07T05:40:28.402Z,88.90
2023-05-07T05:42:56.023Z,88.80
2023-05-07T05:45:23.585Z,89.00
2023-05-07T05:47:51.212Z,89.00
2023-05-07T05:50:18.921Z,89.30
2023-05-07T05:52:46.434Z,89.20
2023-05-07T05:55:13.936Z,89.10
2023-05-07T05:57:41.830Z,89.90
2023-05-07T06:00:10.673Z,89.10
2023-05-07T06:02:38.918Z,89.20
2023-05-07T06:05:07.042Z,89.50
2023-05-07T06:07:35.881Z,89.40
2023-05-07T06:10:03.549Z,89.60
2023-05-07T06:12:31.072Z,89.80
2023-05-07T06:14:58.595Z,89.60
2023-05-07T06:17:26.139Z,89.60
2023-05-07T06:19:54.183Z,90.10
2023-05-07T06:22:21.720Z,90.10
2023-05-07T06:24:49.223Z,90.10
2023-05-07T06:27:16.755Z,90.10
2023-05-07T06:29:44.229Z,90.20
2023-05-07T06:32:13.574Z,90.00
2023-05-07T06:34:41.951Z,90.10
2023-05-07T06:37:09.403Z,90.00
2023-05-07T06:39:36.968Z,89.90
2023-05-07T06:42:05.900Z,90.10
2023-05-07T06:44:33.705Z,90.10
2023-05-07T06:47:01.454Z,90.00
2023-05-07T06:49:29.012Z,90.10
2023-05-07T06:51:56.856Z,90.10
2023-05-07T06:54:24.624Z,90.20
2023-05-07T06:56:52.143Z,90.10
2023-05-07T06:59:20.620Z,90.00
2023-05-07T07:01:48.200Z,90.20
2023-05-07T07:04:16.023Z,90.10
2023-05-07T07:06:43.602Z,90.10
2023-05-07T07:09:11.253Z,90.10
2023-05-07T07:11:39.226Z,90.40
2023-05-07T07:14:07.105Z,90.00
2023-05-07T07:16:34.784Z,90.20
2023-05-07T07:19:02.363Z,90.10
2023-05-07T07:21:29.977Z,90.20
2023-05-07T07:23:57.660Z,90.10
2023-05-07T07:26:25.229Z,90.10
2023-05-07T07:28:52.694Z,90.00
2023-05-07T07:31:20.302Z,90.00
2023-05-07T07:33:47.910Z,89.90
2023-05-07T07:36:15.456Z,90.00
2023-05-07T07:38:43.254Z,89.90
2023-05-07T07:41:11.137Z,90.00
2023-05-07T07:43:38.844Z,90.00
2023-05-07T07:46:06.669Z,90.00
2023-05-07T07:48:34.770Z,90.00
2023-05-07T07:51:02.361Z,90.00
2023-05-07T07:53:29.949Z,90.10
2023-05-07T07:55:59.328Z,90.10
2023-05-07T07:58:27.525Z,90.20
2023-05-07T08:00:57.165Z,90.10
2023-05-07T08:03:25.105Z,90.10
2023-05-07T08:05:53.157Z,90.20
2023-05-07T08:08:20.984Z,90.20
2023-05-07T08:10:51.171Z,90.10
2023-05-07T08:13:19.889Z,90.20
2023-05-07T08:15:47.438Z,90.60
2023-05-07T08:18:14.936Z,90.60
2023-05-07T08:20:42.730Z,90.40
2023-05-07T08:23:10.484Z,90.30
2023-05-07T08:25:38.746Z,90.30
2023-05-07T08:28:08.353Z,90.30
2023-05-07T08:30:37.382Z,90.20
2023-05-07T08:33:05.026Z,90.20
2023-05-07T08:35:32.657Z,90.10
2023-05-07T08:38:00.173Z,90.20
2023-05-07T08:40:28.343Z,90.20
2023-05-07T08:42:57.764Z,90.10
2023-05-07T08:45:26.006Z,90.20
2023-05-07T08:48:01.225Z,90.20
2023-05-07T08:50:29.225Z,89.70
2023-05-07T08:52:58.236Z,89.50
2023-05-07T08:55:26.568Z,89.60
2023-05-07T08:57:54.328Z,89.20
2023-05-07T09:00:21.870Z,89.80
2023-05-07T09:02:49.497Z,90.00
2023-05-07T09:05:17.115Z,89.80
2023-05-07T09:07:44.614Z,89.50
2023-05-07T09:10:12.595Z,89.60
2023-05-07T09:12:41.133Z,89.40
2023-05-07T09:15:09.688Z,89.40
2023-05-07T09:17:37.685Z,89.60
2023-05-07T09:20:08.567Z,89.50
2023-05-07T09:22:40.782Z,89.30
2023-05-07T09:25:09.755Z,90.10
2023-05-07T09:27:38.018Z,90.40
2023-05-07T09:30:07.538Z,90.40
2023-05-07T09:32:41.806Z,90.50
2023-05-07T09:35:19.451Z,90.40
2023-05-07T09:37:47.798Z,89.80
2023-05-07T09:40:26.354Z,90.10
2023-05-07T09:42:54.236Z,89.70
2023-05-07T09:45:28.533Z,90.10
2023-05-07T09:47:59.982Z,89.80
2023-05-07T09:50:30.081Z,89.80
2023-05-07T09:52:58.598Z,89.80
2023-05-07T09:55:26.785Z,89.70
2023-05-07T09:57:55.241Z,89.80
2023-05-07T10:00:23.535Z,89.70
2023-05-07T10:02:54.082Z,89.70
2023-05-07T10:05:22.820Z,89.60
2023-05-07T10:07:51.677Z,89.60
2023-05-07T10:10:19.617Z,89.50
2023-05-07T10:12:47.819Z,89.40
2023-05-07T10:15:15.854Z,89.40
2023-05-07T10:17:43.467Z,89.30
2023-05-07T10:20:11.377Z,89.40
2023-05-07T10:22:50.000Z,89.30
2023-05-07T10:25:24.747Z,89.30
2023-05-07T10:27:54.936Z,89.50
2023-05-07T10:30:55.358Z,89.50
2023-05-07T10:33:27.573Z,89.30
2023-05-07T10:36:01.964Z,89.30
2023-05-07T10:38:30.773Z,89.30
2023-05-07T10:40:58.478Z,89.40
2023-05-07T10:43:26.274Z,89.70
2023-05-07T10:46:13.556Z,89.50
2023-05-07T10:49:10.034Z,89.60
2023-05-07T10:51:41.288Z,90.00
2023-05-07T10:54:12.118Z,89.50
2023-05-07T10:56:47.177Z,89.70
2023-05-07T10:59:33.032Z,89.50
2023-05-07T11:02:09.098Z,89.60
2023-05-07T11:04:37.531Z,89.30
2023-05-07T11:07:08.298Z,89.50
2023-05-07T11:09:54.281Z,89.40
2023-05-07T11:12:40.418Z,89.50
2023-05-07T11:15:09.627Z,89.60
2023-05-07T11:17:55.387Z,89.70
2023-05-07T11:20:44.732Z,89.60
2023-05-07T11:23:33.129Z,89.70
2023-05-07T11:26:07.825Z,89.50
2023-05-07T11:28:40.969Z,89.80
2023-05-07T11:31:09.315Z,89.50
2023-05-07T11:33:37.787Z,89.50
2023-05-07T11:36:06.573Z,89.20
2023-05-07T11:38:38.303Z,89.40
2023-05-07T11:41:06.547Z,89.60
2023-05-07T11:43:34.570Z,89.60
2023-05-07T11:46:11.981Z,89.20
2023-05-07T11:48:40.259Z,89.60
2023-05-07T11:51:10.331Z,89.10
2023-05-07T11:53:40.609Z,89.50
2023-05-07T11:56:13.659Z,89.50
2023-05-07T11:58:42.444Z,89.20
2023-05-07T12:01:11.777Z,89.50
2023-05-07T12:03:44.070Z,89.10
2023-05-07T12:06:13.287Z,89.30
2023-05-07T12:08:42.251Z,89.40
2023-05-07T12:11:14.380Z,89.10
2023-05-07T12:13:43.205Z,89.40
2023-05-07T12:16:11.130Z,89.50
2023-05-07T12:18:41.852Z,89.20
2023-05-07T12:21:10.116Z,89.30
2023-05-07T12:23:39.516Z,89.40
2023-05-07T12:26:07.822Z,89.10
2023-05-07T12:28:40.139Z,88.80
2023-05-07T12:31:08.725Z,88.70
2023-05-07T12:33:37.530Z,89.00
2023-05-07T12:36:10.803Z,89.10
2023-05-07T12:38:40.004Z,88.90
2023-05-07T12:41:09.692Z,89.10
2023-05-07T12:43:37.857Z,89.20
2023-05-07T12:46:07.790Z,89.30
2023-05-07T12:48:37.365Z,89.10
2023-05-07T12:51:06.495Z,89.40
2023-05-07T12:53:34.049Z,88.90
2023-05-07T12:56:02.012Z,88.80
2023-05-07T12:58:35.768Z,88.80
2023-05-07T13:01:07.022Z,89.10
2023-05-07T13:03:40.038Z,88.90
2023-05-07T13:06:11.144Z,88.80
2023-05-07T13:08:44.686Z,88.70
2023-05-07T13:11:13.128Z,88.90
2023-05-07T13:13:42.575Z,89.50
2023-05-07T13:16:13.940Z,89.30
2023-05-07T13:18:45.090Z,88.10
2023-05-07T13:21:14.514Z,88.00
2023-05-07T13:23:42.396Z,87.60
2023-05-07T13:26:22.427Z,86.40
2023-05-07T13:28:55.629Z,86.90
2023-05-07T13:31:23.376Z,85.70
2023-05-07T13:33:51.323Z,85.20
2023-05-07T13:36:18.938Z,85.00
2023-05-07T13:38:48.412Z,85.40
2023-05-07T13:41:16.192Z,84.50
2023-05-07T13:43:43.919Z,85.20
2023-05-07T13:46:11.724Z,85.60
2023-05-07T13:48:39.307Z,85.30
2023-05-07T13:51:06.929Z,85.70
2023-05-07T13:53:34.386Z,85.00
2023-05-07T13:56:05.879Z,84.60
2023-05-07T13:58:33.887Z,84.40
2023-05-07T14:01:01.569Z,84.10
2023-05-07T14:03:29.338Z,84.00
2023-05-07T14:05:59.013Z,84.60
2023-05-07T14:08:26.989Z,85.00
2023-05-07T14:10:54.827Z,85.30
2023-05-07T14:13:22.475Z,85.40
2023-05-07T14:15:50.338Z,85.70
2023-05-07T14:18:17.874Z,86.00
2023-05-07T14:20:47.644Z,86.00
2023-05-07T14:23:15.413Z,86.00
2023-05-07T14:25:44.768Z,85.90
2023-05-07T14:28:12.275Z,85.90
2023-05-07T14:30:39.878Z,85.90
2023-05-07T14:33:07.534Z,85.80
2023-05-07T14:35:35.028Z,85.90
2023-05-07T14:38:02.825Z,86.10
2023-05-07T14:40:30.381Z,84.40
2023-05-07T14:42:59.032Z,84.40
2023-05-07T14:45:28.704Z,83.00
2023-05-07T14:47:58.738Z,83.40
2023-05-07T14:50:27.126Z,84.10
2023-05-07T14:52:54.734Z,84.60
2023-05-07T14:55:22.429Z,84.60
2023-05-07T14:57:50.160Z,85.00
2023-05-07T15:00:17.910Z,84.60
2023-05-07T15:02:45.762Z,84.80
2023-05-07T15:05:13.765Z,84.60
2023-05-07T15:07:41.650Z,84.30
2023-05-07T15:10:09.575Z,84.60
2023-05-07T15:12:37.184Z,84.20
2023-05-07T15:15:05.389Z,84.70
2023-05-07T15:17:32.937Z,84.00
2023-05-07T15:20:00.672Z,82.70
2023-05-07T15:22:28.403Z,83.80
2023-05-07T15:24:58.386Z,84.10
2023-05-07T15:27:28.285Z,83.60
2023-05-07T15:29:58.229Z,84.00
2023-05-07T15:32:26.878Z,83.90
2023-05-07T15:34:54.532Z,83.90
2023-05-07T15:37:22.055Z,83.80
2023-05-07T15:39:49.642Z,83.80
2023-05-07T15:42:17.133Z,83.40
2023-05-07T15:44:45.039Z,83.60
2023-05-07T15:47:15.239Z,83.40
2023-05-07T15:49:43.599Z,83.30
2023-05-07T15:52:16.245Z,83.20
2023-05-07T15:54:44.353Z,83.40
2023-05-07T15:57:12.740Z,83.40
2023-05-07T15:59:40.595Z,83.70
2023-05-07T16:02:09.404Z,83.70
2023-05-07T16:04:37.055Z,83.50
2023-05-07T16:07:04.952Z,83.10
2023-05-07T16:09:33.154Z,83.10
2023-05-07T16:12:01.393Z,83.90
2023-05-07T16:14:28.932Z,83.30
2023-05-07T16:16:57.093Z,83.20
2023-05-07T16:19:24.803Z,82.60
2023-05-07T16:21:53.075Z,82.90
2023-05-07T16:24:21.075Z,82.80
2023-05-07T16:26:48.621Z,82.90
2023-05-07T16:29:16.257Z,83.00
2023-05-07T16:31:44.877Z,82.30
2023-05-07T16:34:12.539Z,82.10
2023-05-07T16:36:40.185Z,82.60
2023-05-07T16:39:07.806Z,82.90
2023-05-07T16:41:35.437Z,83.60
2023-05-07T16:44:04.116Z,83.00
2023-05-07T16:46:32.579Z,82.90
2023-05-07T16:49:00.150Z,82.80
2023-05-07T16:51:28.297Z,83.20
2023-05-07T16:53:56.060Z,82.50
2023-05-07T16:56:23.697Z,83.00
2023-05-07T16:58:51.829Z,82.90
2023-05-07T17:01:19.954Z,82.40
2023-05-07T17:03:47.841Z,82.30
2023-05-07T17:06:15.499Z,82.70
2023-05-07T17:08:43.291Z,82.30
2023-05-07T17:11:12.491Z,82.20
2023-05-07T17:13:41.428Z,82.30
2023-05-07T17:16:09.139Z,82.30
2023-05-07T17:18:36.737Z,82.10
2023-05-07T17:21:04.334Z,82.30
2023-05-07T17:23:31.811Z,82.10
2023-05-07T17:25:59.349Z,81.80
2023-05-07T17:28:26.808Z,82.20
2023-05-07T17:30:54.390Z,82.00
2023-05-07T17:33:22.419Z,81.90
2023-05-07T17:35:50.290Z,81.70
2023-05-07T17:38:17.883Z,81.90
2023-05-07T17:40:45.392Z,81.90
2023-05-07T17:43:12.973Z,81.70
2023-05-07T17:45:43.559Z,81.60
2023-05-07T17:48:11.281Z,81.50
2023-05-07T17:50:38.979Z,81.40
2023-05-07T17:53:06.492Z,81.50
2023-05-07T17:55:34.187Z,81.40
2023-05-07T17:58:02.881Z,80.80
2023-05-07T18:00:30.669Z,81.00
2023-05-07T18:03:00.288Z,81.00
2023-05-07T18:05:28.373Z,81.10
2023-05-07T18:07:56.473Z,81.00
2023-05-07T18:10:24.406Z,80.30
2023-05-07T18:12:52.237Z,78.80
2023-05-07T18:15:19.885Z,77.10
2023-05-07T18:17:47.488Z,76.60
2023-05-07T18:20:15.206Z,78.10
2023-05-07T18:22:42.761Z,78.60
2023-05-07T18:25:10.468Z,78.50
2023-05-07T18:27:38.142Z,78.70
2023-05-07T18:30:06.598Z,78.50
2023-05-07T18:32:34.136Z,78.50
2023-05-07T18:35:01.654Z,78.50
2023-05-07T18:37:29.879Z,78.70
2023-05-07T18:39:58.447Z,78.00
2023-05-07T18:42:26.292Z,78.20
2023-05-07T18:44:53.794Z,78.50
2023-05-07T18:47:21.315Z,78.20
2023-05-07T18:49:48.983Z,78.30
2023-05-07T18:52:21.329Z,78.20
2023-05-07T18:54:49.125Z,78.10
2023-05-07T18:57:17.150Z,78.10
2023-05-07T18:59:44.651Z,78.00
2023-05-07T19:02:14.251Z,78.10
2023-05-07T19:04:41.842Z,77.70
2023-05-07T19:07:09.405Z,77.90
2023-05-07T19:09:37.018Z,77.90
2023-05-07T19:12:05.104Z,77.70
2023-05-07T19:14:32.561Z,77.80
2023-05-07T19:17:00.162Z,77.60
2023-05-07T19:19:28.181Z,77.60
2023-05-07T19:21:55.863Z,77.60
2023-05-07T19:24:23.439Z,77.50
2023-05-07T19:26:51.656Z,77.90
2023-05-07T19:29:19.199Z,77.20
2023-05-07T19:31:46.835Z,77.20
2023-05-07T19:34:14.545Z,77.20
2023-05-07T19:36:42.367Z,77.00
2023-05-07T19:39:09.888Z,77.00
2023-05-07T19:41:37.440Z,76.80
2023-05-07T19:44:05.135Z,76.80
2023-05-07T19:46:32.882Z,76.80
2023-05-07T19:49:01.107Z,76.80
2023-05-07T19:51:32.595Z,76.80
2023-05-07T19:54:00.447Z,76.90
2023-05-07T19:56:28.066Z,76.70
2023-05-07T19:58:55.635Z,76.50
2023-05-07T20:01:23.251Z,76.20
2023-05-07T20:03:50.913Z,76.30
2023-05-07T20:06:18.546Z,76.40
2023-05-07T20:08:46.139Z,76.50
2023-05-07T20:11:14.462Z,76.40
2023-05-07T20:13:42.140Z,76.40
2023-05-07T20:16:09.879Z,76.20
2023-05-07T20:18:37.749Z,76.40
2023-05-07T20:21:05.434Z,76.30
2023-05-07T20:23:33.196Z,76.10
2023-05-07T20:26:00.936Z,76.30
2023-05-07T20:28:28.460Z,76.30
2023-05-07T20:30:56.086Z,76.20
2023-05-07T20:33:23.551Z,76.30
2023-05-07T20:35:51.080Z,76.50
2023-05-07T20:38:18.700Z,76.20
2023-05-07T20:40:46.233Z,76.30
2023-05-07T20:43:13.859Z,76.00
2023-05-07T20:45:41.528Z,76.80
2023-05-07T20:48:09.110Z,76.10
2023-05-07T20:50:36.914Z,76.20
2023-05-07T20:53:04.423Z,76.20
2023-05-07T20:55:31.890Z,76.20
2023-05-07T20:57:59.438Z,76.10
2023-05-07T21:00:27.053Z,76.20
2023-05-07T21:02:54.596Z,76.00
2023-05-07T21:05:22.178Z,76.00
2023-05-07T21:07:49.657Z,76.00
2023-05-07T21:10:17.208Z,76.30
2023-05-07T21:12:44.683Z,76.20
2023-05-07T21:15:12.410Z,76.20
2023-05-07T21:17:39.925Z,76.30
2023-05-07T21:20:08.249Z,76.10
2023-05-07T21:22:35.898Z,76.00
2023-05-07T21:25:03.702Z,76.30
2023-05-07T21:27:31.330Z,76.10
2023-05-07T21:30:03.759Z,76.10
2023-05-07T21:32:31.714Z,76.20
2023-05-07T21:35:00.993Z,76.20
2023-05-07T21:37:28.514Z,76.10
2023-05-07T21:39:56.283Z,76.20
2023-05-07T21:42:23.814Z,76.20
2023-05-07T21:44:51.348Z,76.30
2023-05-07T21:47:19.659Z,75.90
2023-05-07T21:49:47.254Z,76.20
2023-05-07T21:52:16.210Z,76.00
2023-05-07T21:54:43.979Z,76.00
2023-05-07T21:57:11.463Z,76.30
2023-05-07T21:59:38.952Z,76.30
2023-05-07T22:02:06.959Z,76.30
2023-05-07T22:04:34.472Z,76.20
2023-05-07T22:07:02.009Z,76.40
2023-05-07T22:09:29.611Z,76.30
2023-05-07T22:11:57.095Z,76.50
2023-05-07T22:14:24.644Z,76.40
2023-05-07T22:16:52.240Z,76.30
2023-05-07T22:19:19.925Z,76.30
2023-05-07T22:21:47.422Z,76.40
2023-05-07T22:24:15.273Z,76.50
2023-05-07T22:26:42.832Z,76.40
2023-05-07T22:29:10.499Z,76.40
2023-05-07T22:31:37.978Z,76.40
2023-05-07T22:34:05.590Z,76.50
2023-05-07T22:36:33.501Z,76.40
2023-05-07T22:39:01.682Z,76.30
2023-05-07T22:41:29.205Z,76.40
2023-05-07T22:43:56.973Z,76.50
2023-05-07T22:46:24.857Z,76.40
2023-05-07T22:48:52.732Z,76.40
2023-05-07T22:51:20.359Z,76.60
2023-05-07T22:53:47.902Z,76.50
2023-05-07T22:56:16.033Z,76.30
2023-05-07T22:58:43.534Z,76.30
2023-05-07T23:01:15.268Z,76.50
2023-05-07T23:03:44.007Z,76.40
2023-05-07T23:06:11.665Z,76.50
2023-05-07T23:08:39.179Z,76.50
2023-05-07T23:11:06.859Z,76.50
2023-05-07T23:13:34.583Z,76.50
2023-05-07T23:16:02.114Z,76.50
2023-05-07T23:18:30.610Z,76.40
2023-05-07T23:20:58.242Z,76.40
2023-05-07T23:23:26.017Z,76.50
2023-05-07T23:25:53.766Z,76.30
2023-05-07T23:28:21.286Z,76.10
2023-05-07T23:30:48.819Z,76.20
2023-05-07T23:33:19.283Z,76.30
2023-05-07T23:35:46.873Z,76.20
2023-05-07T23:38:14.332Z,76.50
2023-05-07T23:40:42.079Z,76.60
2023-05-07T23:43:09.549Z,76.30
2023-05-07T23:45:37.045Z,76.30
2023-05-07T23:48:04.702Z,76.40
2023-05-07T23:50:32.228Z,76.40
2023-05-07T23:52:59.756Z,76.40
2023-05-07T23:55:27.207Z,76.40
2023-05-07T23:57:54.791Z,76.50
